This is the latest recevied weather packets stored in our database for station/object K7D3. If no packets are shown the sender has not sent any weather packets the latest 10 day(s).
| Time | Temp. | Humidity | Pressure | Rain* | Wind** | Luminosity | Snow |
|---|---|---|---|---|---|---|---|
| 1778028521 | 10° C | 42% | - | 0 mm | 0 m/s | - | - |
| 1778028043 | 10° C | 40% | - | 0 mm | 0.89 m/s, 314° | - | - |
| 1778027564 | 10° C | 40% | - | 0 mm | 1.34 m/s, 328° | - | - |
| 1778027081 | 10.56° C | 39% | - | 0 mm | 2.24 m/s, 257° | - | - |
| 1778026602 | 10° C | 37% | - | 0 mm | 4.47 m/s, 17° | - | - |
| 1778026124 | 11.11° C | 36% | - | 0 mm | 2.68 m/s, 330° | - | - |
| 1778025641 | 11.11° C | 36% | - | 0 mm | 2.68 m/s, 32° | - | - |
| 1778025163 | 11.11° C | 34% | - | 0 mm | 3.13 m/s, 318° | - | - |
| 1778024684 | 11.11° C | 34% | - | 0 mm | 2.68 m/s, 11° | - | - |
| 1778024200 | 11.67° C | 35% | - | 0 mm | 3.13 m/s, 353° | - | - |
| 1778023721 | 11.67° C | 34% | - | 0 mm | 3.58 m/s, 295° | - | - |
| 1778023242 | 11.67° C | 34% | - | 0 mm | 2.24 m/s, 287° | - | - |
| 1778022760 | 11.11° C | 33% | - | 0 mm | 6.26 m/s, 346° | - | - |
| 1778022282 | 11.67° C | 34% | - | 0 mm | 3.58 m/s, 339° | - | - |
| 1778021803 | 11.11° C | 33% | - | 0 mm | 4.02 m/s, 330° | - | - |
| 1778021321 | 12.22° C | 35% | - | 0 mm | 3.13 m/s, 311° | - | - |
| 1778020842 | 11.67° C | 34% | - | 0 mm | 3.58 m/s, 339° | - | - |
| 1778020363 | 11.67° C | 33% | - | 0 mm | 4.92 m/s, 311° | - | - |
| 1778019881 | 11.67° C | 34% | - | 0 mm | 4.47 m/s, 300° | - | - |
| 1778019402 | 11.67° C | 35% | - | 0 mm | 4.47 m/s, 319° | - | - |
| 1778018923 | 11.67° C | 34% | - | 0 mm | 4.02 m/s, 329° | - | - |
| 1778018441 | 12.22° C | 34% | - | 0 mm | 4.47 m/s, 308° | - | - |
| 1778017963 | 11.67° C | 34% | - | 0 mm | 5.81 m/s, 281° | - | - |
| 1778017484 | 12.22° C | 36% | - | 0 mm | 3.58 m/s, 305° | - | - |
| 1778017002 | 11.67° C | 38% | - | 0 mm | 3.58 m/s, 18° | - | - |
* Rain latest hour (hover to see other rain measurements)
** Current wind speed in m/s (hover to see current wind gust speed)